sensor_id;sensor_type;location;lat;lon;timestamp;temperature;humidity
15113;DHT22;7657;50.140;7.076;2023-06-22T00:00:48;23.70;99.90
15113;DHT22;7657;50.140;7.076;2023-06-22T00:03:16;23.70;99.90
15113;DHT22;7657;50.140;7.076;2023-06-22T00:05:43;23.60;99.90
15113;DHT22;7657;50.140;7.076;2023-06-22T00:08:10;23.70;99.90
15113;DHT22;7657;50.140;7.076;2023-06-22T00:10:37;23.70;99.90
15113;DHT22;7657;50.140;7.076;2023-06-22T00:13:06;23.70;99.90
15113;DHT22;7657;50.140;7.076;2023-06-22T00:15:34;23.70;99.90
15113;DHT22;7657;50.140;7.076;2023-06-22T00:18:01;23.80;99.90
15113;DHT22;7657;50.140;7.076;2023-06-22T00:20:28;23.80;99.90
15113;DHT22;7657;50.140;7.076;2023-06-22T00:22:56;23.70;99.90
15113;DHT22;7657;50.140;7.076;2023-06-22T00:25:23;23.70;99.90
15113;DHT22;7657;50.140;7.076;2023-06-22T00:27:50;23.70;99.90
15113;DHT22;7657;50.140;7.076;2023-06-22T00:30:19;23.70;99.90
15113;DHT22;7657;50.140;7.076;2023-06-22T00:32:46;23.80;99.90
15113;DHT22;7657;50.140;7.076;2023-06-22T00:35:13;23.80;99.90
15113;DHT22;7657;50.140;7.076;2023-06-22T00:37:39;23.60;99.90
15113;DHT22;7657;50.140;7.076;2023-06-22T00:40:08;23.60;99.90
15113;DHT22;7657;50.140;7.076;2023-06-22T00:42:36;23.60;99.90
15113;DHT22;7657;50.140;7.076;2023-06-22T00:45:04;23.60;99.90
15113;DHT22;7657;50.140;7.076;2023-06-22T00:47:34;23.60;99.90
15113;DHT22;7657;50.140;7.076;2023-06-22T00:50:02;23.60;99.90
15113;DHT22;7657;50.140;7.076;2023-06-22T00:52:30;23.60;99.90
15113;DHT22;7657;50.140;7.076;2023-06-22T00:54:59;23.70;99.90
15113;DHT22;7657;50.140;7.076;2023-06-22T00:57:28;23.60;99.90
15113;DHT22;7657;50.140;7.076;2023-06-22T00:59:55;23.60;99.90
15113;DHT22;7657;50.140;7.076;2023-06-22T01:02:22;23.60;99.90
15113;DHT22;7657;50.140;7.076;2023-06-22T01:04:50;23.60;99.90
15113;DHT22;7657;50.140;7.076;2023-06-22T01:07:22;23.60;99.90
15113;DHT22;7657;50.140;7.076;2023-06-22T01:09:59;23.60;99.90
15113;DHT22;7657;50.140;7.076;2023-06-22T01:12:32;23.50;99.90
15113;DHT22;7657;50.140;7.076;2023-06-22T01:15:05;23.50;99.90
15113;DHT22;7657;50.140;7.076;2023-06-22T01:17:35;23.50;99.90
15113;DHT22;7657;50.140;7.076;2023-06-22T01:20:06;23.50;99.90
15113;DHT22;7657;50.140;7.076;2023-06-22T01:25:33;23.30;99.90
15113;DHT22;7657;50.140;7.076;2023-06-22T01:28:09;23.30;99.90
15113;DHT22;7657;50.140;7.076;2023-06-22T01:30:42;23.30;99.90
15113;DHT22;7657;50.140;7.076;2023-06-22T01:33:13;23.30;99.90
15113;DHT22;7657;50.140;7.076;2023-06-22T01:35:41;23.30;99.90
15113;DHT22;7657;50.140;7.076;2023-06-22T01:38:08;23.30;99.90
15113;DHT22;7657;50.140;7.076;2023-06-22T01:40:36;23.30;99.90
15113;DHT22;7657;50.140;7.076;2023-06-22T01:43:04;23.10;99.90
15113;DHT22;7657;50.140;7.076;2023-06-22T01:45:31;23.00;99.90
15113;DHT22;7657;50.140;7.076;2023-06-22T01:48:00;23.00;99.90
15113;DHT22;7657;50.140;7.076;2023-06-22T01:50:27;22.90;99.90
15113;DHT22;7657;50.140;7.076;2023-06-22T01:52:55;23.00;99.90
15113;DHT22;7657;50.140;7.076;2023-06-22T01:55:22;23.00;99.90
15113;DHT22;7657;50.140;7.076;2023-06-22T01:57:49;23.00;99.90
15113;DHT22;7657;50.140;7.076;2023-06-22T02:00:21;23.00;99.90
15113;DHT22;7657;50.140;7.076;2023-06-22T02:02:53;23.00;99.90
15113;DHT22;7657;50.140;7.076;2023-06-22T02:05:24;22.90;99.90
15113;DHT22;7657;50.140;7.076;2023-06-22T02:07:56;22.80;99.90
15113;DHT22;7657;50.140;7.076;2023-06-22T02:10:25;22.70;99.90
15113;DHT22;7657;50.140;7.076;2023-06-22T02:12:53;22.70;99.90
15113;DHT22;7657;50.140;7.076;2023-06-22T02:15:21;22.70;99.90
15113;DHT22;7657;50.140;7.076;2023-06-22T02:17:48;22.60;99.90
15113;DHT22;7657;50.140;7.076;2023-06-22T02:20:15;22.50;99.90
15113;DHT22;7657;50.140;7.076;2023-06-22T02:22:43;22.40;99.90
15113;DHT22;7657;50.140;7.076;2023-06-22T02:25:10;22.50;99.90
15113;DHT22;7657;50.140;7.076;2023-06-22T02:27:37;22.50;99.90
15113;DHT22;7657;50.140;7.076;2023-06-22T02:30:07;22.50;99.90
15113;DHT22;7657;50.140;7.076;2023-06-22T02:32:34;22.60;99.90
15113;DHT22;7657;50.140;7.076;2023-06-22T02:35:01;22.50;99.90
15113;DHT22;7657;50.140;7.076;2023-06-22T02:37:30;22.40;99.90
15113;DHT22;7657;50.140;7.076;2023-06-22T02:39:58;22.20;99.90
15113;DHT22;7657;50.140;7.076;2023-06-22T02:42:25;22.30;99.90
15113;DHT22;7657;50.140;7.076;2023-06-22T02:44:52;22.40;99.90
15113;DHT22;7657;50.140;7.076;2023-06-22T02:47:19;22.40;99.90
15113;DHT22;7657;50.140;7.076;2023-06-22T02:49:46;22.40;99.90
15113;DHT22;7657;50.140;7.076;2023-06-22T02:52:13;22.40;99.90
15113;DHT22;7657;50.140;7.076;2023-06-22T02:54:39;22.40;99.90
15113;DHT22;7657;50.140;7.076;2023-06-22T02:57:08;22.30;99.90
15113;DHT22;7657;50.140;7.076;2023-06-22T02:59:38;22.30;99.90
15113;DHT22;7657;50.140;7.076;2023-06-22T03:02:06;22.30;99.90
15113;DHT22;7657;50.140;7.076;2023-06-22T03:04:33;22.30;99.90
15113;DHT22;7657;50.140;7.076;2023-06-22T03:07:00;22.20;99.90
15113;DHT22;7657;50.140;7.076;2023-06-22T03:09:27;22.20;99.90
15113;DHT22;7657;50.140;7.076;2023-06-22T03:11:55;22.10;99.90
15113;DHT22;7657;50.140;7.076;2023-06-22T03:14:23;22.00;99.90
15113;DHT22;7657;50.140;7.076;2023-06-22T03:16:50;22.00;99.90
15113;DHT22;7657;50.140;7.076;2023-06-22T03:19:17;22.00;99.90
15113;DHT22;7657;50.140;7.076;2023-06-22T03:21:45;22.00;99.90
15113;DHT22;7657;50.140;7.076;2023-06-22T03:24:11;21.90;99.90
15113;DHT22;7657;50.140;7.076;2023-06-22T03:26:38;21.80;99.90
15113;DHT22;7657;50.140;7.076;2023-06-22T03:29:05;21.70;99.90
15113;DHT22;7657;50.140;7.076;2023-06-22T03:31:33;21.70;99.90
15113;DHT22;7657;50.140;7.076;2023-06-22T03:34:00;21.70;99.90
15113;DHT22;7657;50.140;7.076;2023-06-22T03:36:27;21.70;99.90
15113;DHT22;7657;50.140;7.076;2023-06-22T03:38:54;21.80;99.90
15113;DHT22;7657;50.140;7.076;2023-06-22T03:41:21;21.80;99.90
15113;DHT22;7657;50.140;7.076;2023-06-22T03:43:48;21.70;99.90
15113;DHT22;7657;50.140;7.076;2023-06-22T03:46:15;21.80;99.90
15113;DHT22;7657;50.140;7.076;2023-06-22T03:48:43;21.70;99.90
15113;DHT22;7657;50.140;7.076;2023-06-22T03:51:10;21.70;99.90
15113;DHT22;7657;50.140;7.076;2023-06-22T03:53:37;21.70;99.90
15113;DHT22;7657;50.140;7.076;2023-06-22T03:56:04;21.70;99.90
15113;DHT22;7657;50.140;7.076;2023-06-22T03:58:30;21.70;99.90
15113;DHT22;7657;50.140;7.076;2023-06-22T04:00:58;21.80;99.90
15113;DHT22;7657;50.140;7.076;2023-06-22T04:03:25;21.80;99.90
15113;DHT22;7657;50.140;7.076;2023-06-22T04:05:53;21.80;99.90
15113;DHT22;7657;50.140;7.076;2023-06-22T04:08:20;21.80;99.90
15113;DHT22;7657;50.140;7.076;2023-06-22T04:10:47;21.70;99.90
15113;DHT22;7657;50.140;7.076;2023-06-22T04:13:15;21.70;99.90
15113;DHT22;7657;50.140;7.076;2023-06-22T04:15:42;21.70;99.90
15113;DHT22;7657;50.140;7.076;2023-06-22T04:18:08;21.60;99.90
15113;DHT22;7657;50.140;7.076;2023-06-22T04:20:35;21.60;99.90
15113;DHT22;7657;50.140;7.076;2023-06-22T04:23:03;21.50;99.90
15113;DHT22;7657;50.140;7.076;2023-06-22T04:25:30;21.50;99.90
15113;DHT22;7657;50.140;7.076;2023-06-22T04:27:57;21.40;99.90
15113;DHT22;7657;50.140;7.076;2023-06-22T04:30:24;21.40;99.90
15113;DHT22;7657;50.140;7.076;2023-06-22T04:32:51;21.40;99.90
15113;DHT22;7657;50.140;7.076;2023-06-22T04:35:23;21.30;99.90
15113;DHT22;7657;50.140;7.076;2023-06-22T04:37:50;21.20;99.90
15113;DHT22;7657;50.140;7.076;2023-06-22T04:40:22;21.20;99.90
15113;DHT22;7657;50.140;7.076;2023-06-22T04:42:49;21.20;99.90
15113;DHT22;7657;50.140;7.076;2023-06-22T04:45:19;21.20;99.90
15113;DHT22;7657;50.140;7.076;2023-06-22T04:47:46;21.20;99.90
15113;DHT22;7657;50.140;7.076;2023-06-22T04:50:13;21.20;99.90
15113;DHT22;7657;50.140;7.076;2023-06-22T04:52:40;21.20;99.90
15113;DHT22;7657;50.140;7.076;2023-06-22T04:55:07;21.10;99.90
15113;DHT22;7657;50.140;7.076;2023-06-22T04:57:36;21.10;99.90
15113;DHT22;7657;50.140;7.076;2023-06-22T05:00:06;21.10;99.90
15113;DHT22;7657;50.140;7.076;2023-06-22T05:02:39;21.10;99.90
15113;DHT22;7657;50.140;7.076;2023-06-22T05:05:07;21.10;99.90
15113;DHT22;7657;50.140;7.076;2023-06-22T05:07:34;21.10;99.90
15113;DHT22;7657;50.140;7.076;2023-06-22T05:10:01;21.10;99.90
15113;DHT22;7657;50.140;7.076;2023-06-22T05:12:29;21.10;99.90
15113;DHT22;7657;50.140;7.076;2023-06-22T05:14:57;21.00;99.90
15113;DHT22;7657;50.140;7.076;2023-06-22T05:17:24;21.10;99.90
15113;DHT22;7657;50.140;7.076;2023-06-22T05:19:51;21.00;99.90
15113;DHT22;7657;50.140;7.076;2023-06-22T05:22:18;21.00;99.90
15113;DHT22;7657;50.140;7.076;2023-06-22T05:24:46;21.00;99.90
15113;DHT22;7657;50.140;7.076;2023-06-22T05:27:13;21.00;99.90
15113;DHT22;7657;50.140;7.076;2023-06-22T05:29:40;21.00;99.90
15113;DHT22;7657;50.140;7.076;2023-06-22T05:32:09;21.00;99.90
15113;DHT22;7657;50.140;7.076;2023-06-22T05:34:36;20.90;99.90
15113;DHT22;7657;50.140;7.076;2023-06-22T05:37:04;21.00;99.90
15113;DHT22;7657;50.140;7.076;2023-06-22T05:39:31;21.00;99.90
15113;DHT22;7657;50.140;7.076;2023-06-22T05:41:58;21.10;99.90
15113;DHT22;7657;50.140;7.076;2023-06-22T05:44:25;21.10;99.90
15113;DHT22;7657;50.140;7.076;2023-06-22T05:46:51;21.10;99.90
15113;DHT22;7657;50.140;7.076;2023-06-22T05:49:20;21.10;99.90
15113;DHT22;7657;50.140;7.076;2023-06-22T05:51:47;21.20;99.90
15113;DHT22;7657;50.140;7.076;2023-06-22T05:54:14;21.20;99.90
15113;DHT22;7657;50.140;7.076;2023-06-22T05:56:43;21.30;99.90
15113;DHT22;7657;50.140;7.076;2023-06-22T05:59:10;21.30;99.90
15113;DHT22;7657;50.140;7.076;2023-06-22T06:01:37;21.40;99.90
15113;DHT22;7657;50.140;7.076;2023-06-22T06:04:06;21.50;99.90
15113;DHT22;7657;50.140;7.076;2023-06-22T06:06:35;21.50;99.90
15113;DHT22;7657;50.140;7.076;2023-06-22T06:09:03;21.60;99.90
15113;DHT22;7657;50.140;7.076;2023-06-22T06:11:30;21.60;99.90
15113;DHT22;7657;50.140;7.076;2023-06-22T06:13:57;21.70;99.90
15113;DHT22;7657;50.140;7.076;2023-06-22T06:16:24;21.60;99.90
15113;DHT22;7657;50.140;7.076;2023-06-22T06:18:51;21.60;99.90
15113;DHT22;7657;50.140;7.076;2023-06-22T06:21:19;21.70;99.90
15113;DHT22;7657;50.140;7.076;2023-06-22T06:23:47;21.70;99.90
15113;DHT22;7657;50.140;7.076;2023-06-22T06:26:14;21.70;99.90
15113;DHT22;7657;50.140;7.076;2023-06-22T06:28:42;21.70;99.90
15113;DHT22;7657;50.140;7.076;2023-06-22T06:31:09;21.70;99.90
15113;DHT22;7657;50.140;7.076;2023-06-22T06:33:37;21.70;99.90
15113;DHT22;7657;50.140;7.076;2023-06-22T06:36:05;21.80;99.90
15113;DHT22;7657;50.140;7.076;2023-06-22T06:38:33;21.80;99.90
15113;DHT22;7657;50.140;7.076;2023-06-22T06:41:02;21.90;99.90
15113;DHT22;7657;50.140;7.076;2023-06-22T06:43:29;21.90;99.90
15113;DHT22;7657;50.140;7.076;2023-06-22T06:45:55;22.00;99.90
15113;DHT22;7657;50.140;7.076;2023-06-22T06:48:22;22.10;99.90
15113;DHT22;7657;50.140;7.076;2023-06-22T06:50:50;22.10;99.90
15113;DHT22;7657;50.140;7.076;2023-06-22T06:53:17;22.20;99.90
15113;DHT22;7657;50.140;7.076;2023-06-22T06:55:43;22.20;99.90
15113;DHT22;7657;50.140;7.076;2023-06-22T06:58:12;22.20;99.90
15113;DHT22;7657;50.140;7.076;2023-06-22T07:00:40;22.40;99.90
15113;DHT22;7657;50.140;7.076;2023-06-22T07:03:08;22.40;99.90
15113;DHT22;7657;50.140;7.076;2023-06-22T07:05:35;22.50;99.90
15113;DHT22;7657;50.140;7.076;2023-06-22T07:08:02;22.50;99.90
15113;DHT22;7657;50.140;7.076;2023-06-22T07:10:29;22.60;99.90
15113;DHT22;7657;50.140;7.076;2023-06-22T07:12:55;22.60;99.90
15113;DHT22;7657;50.140;7.076;2023-06-22T07:15:24;22.50;99.90
15113;DHT22;7657;50.140;7.076;2023-06-22T07:17:51;22.50;99.90
15113;DHT22;7657;50.140;7.076;2023-06-22T07:20:18;22.50;99.90
15113;DHT22;7657;50.140;7.076;2023-06-22T07:22:45;22.60;99.90
15113;DHT22;7657;50.140;7.076;2023-06-22T07:25:12;22.60;99.90
15113;DHT22;7657;50.140;7.076;2023-06-22T07:27:44;22.70;99.90
15113;DHT22;7657;50.140;7.076;2023-06-22T07:30:12;22.70;99.90
15113;DHT22;7657;50.140;7.076;2023-06-22T07:32:40;22.70;99.90
15113;DHT22;7657;50.140;7.076;2023-06-22T07:35:08;22.70;99.90
15113;DHT22;7657;50.140;7.076;2023-06-22T07:37:35;22.70;99.90
15113;DHT22;7657;50.140;7.076;2023-06-22T07:40:02;22.70;99.90
15113;DHT22;7657;50.140;7.076;2023-06-22T07:42:32;22.70;99.90
15113;DHT22;7657;50.140;7.076;2023-06-22T07:44:59;22.80;99.90
15113;DHT22;7657;50.140;7.076;2023-06-22T07:47:27;22.80;99.90
15113;DHT22;7657;50.140;7.076;2023-06-22T07:49:59;22.80;99.90
15113;DHT22;7657;50.140;7.076;2023-06-22T07:52:27;22.80;99.90
15113;DHT22;7657;50.140;7.076;2023-06-22T07:54:54;22.80;99.90
15113;DHT22;7657;50.140;7.076;2023-06-22T07:57:21;22.80;99.90
15113;DHT22;7657;50.140;7.076;2023-06-22T07:59:48;22.90;99.90
15113;DHT22;7657;50.140;7.076;2023-06-22T08:02:15;22.90;99.90
15113;DHT22;7657;50.140;7.076;2023-06-22T08:04:41;22.90;99.90
15113;DHT22;7657;50.140;7.076;2023-06-22T08:07:10;22.90;99.90
15113;DHT22;7657;50.140;7.076;2023-06-22T08:09:37;23.00;99.90
15113;DHT22;7657;50.140;7.076;2023-06-22T08:12:04;23.10;99.90
15113;DHT22;7657;50.140;7.076;2023-06-22T08:14:31;23.10;99.90
15113;DHT22;7657;50.140;7.076;2023-06-22T08:17:01;23.20;99.90
15113;DHT22;7657;50.140;7.076;2023-06-22T08:19:28;23.20;99.90
15113;DHT22;7657;50.140;7.076;2023-06-22T08:21:55;23.30;99.90
15113;DHT22;7657;50.140;7.076;2023-06-22T08:24:24;23.30;99.90
15113;DHT22;7657;50.140;7.076;2023-06-22T08:26:51;23.40;99.90
15113;DHT22;7657;50.140;7.076;2023-06-22T08:29:18;23.30;99.90
15113;DHT22;7657;50.140;7.076;2023-06-22T08:31:45;23.30;99.90
15113;DHT22;7657;50.140;7.076;2023-06-22T08:34:12;23.30;99.90
15113;DHT22;7657;50.140;7.076;2023-06-22T08:36:39;23.40;99.90
15113;DHT22;7657;50.140;7.076;2023-06-22T08:39:10;23.40;99.90
15113;DHT22;7657;50.140;7.076;2023-06-22T08:41:38;23.50;99.90
15113;DHT22;7657;50.140;7.076;2023-06-22T08:44:05;23.60;99.90
15113;DHT22;7657;50.140;7.076;2023-06-22T08:46:32;23.60;99.90
15113;DHT22;7657;50.140;7.076;2023-06-22T08:48:59;23.70;99.90
15113;DHT22;7657;50.140;7.076;2023-06-22T08:51:26;23.70;99.90
15113;DHT22;7657;50.140;7.076;2023-06-22T08:53:54;23.70;99.90
15113;DHT22;7657;50.140;7.076;2023-06-22T08:56:21;23.80;99.90
15113;DHT22;7657;50.140;7.076;2023-06-22T08:58:49;23.80;99.90
15113;DHT22;7657;50.140;7.076;2023-06-22T09:01:16;23.80;99.90
15113;DHT22;7657;50.140;7.076;2023-06-22T09:03:43;23.80;99.90
15113;DHT22;7657;50.140;7.076;2023-06-22T09:06:10;23.90;99.90
15113;DHT22;7657;50.140;7.076;2023-06-22T09:08:37;23.90;99.90
15113;DHT22;7657;50.140;7.076;2023-06-22T09:11:04;23.90;99.90
15113;DHT22;7657;50.140;7.076;2023-06-22T09:13:32;23.90;99.90
15113;DHT22;7657;50.140;7.076;2023-06-22T09:16:01;23.90;99.90
15113;DHT22;7657;50.140;7.076;2023-06-22T09:18:28;23.80;99.90
15113;DHT22;7657;50.140;7.076;2023-06-22T09:20:55;23.80;99.90
15113;DHT22;7657;50.140;7.076;2023-06-22T09:23:22;23.80;99.90
15113;DHT22;7657;50.140;7.076;2023-06-22T09:25:49;23.80;99.90
15113;DHT22;7657;50.140;7.076;2023-06-22T09:28:16;23.70;99.90
15113;DHT22;7657;50.140;7.076;2023-06-22T09:30:43;23.70;99.90
15113;DHT22;7657;50.140;7.076;2023-06-22T09:33:12;23.70;99.90
15113;DHT22;7657;50.140;7.076;2023-06-22T09:35:39;23.70;99.90
15113;DHT22;7657;50.140;7.076;2023-06-22T09:38:06;23.70;99.90
15113;DHT22;7657;50.140;7.076;2023-06-22T09:40:32;23.60;99.90
15113;DHT22;7657;50.140;7.076;2023-06-22T09:43:05;23.60;99.90
15113;DHT22;7657;50.140;7.076;2023-06-22T09:45:32;23.60;99.90
15113;DHT22;7657;50.140;7.076;2023-06-22T09:47:59;23.60;99.90
15113;DHT22;7657;50.140;7.076;2023-06-22T09:50:27;23.70;99.90
15113;DHT22;7657;50.140;7.076;2023-06-22T09:52:54;23.70;99.90
15113;DHT22;7657;50.140;7.076;2023-06-22T09:55:21;23.80;99.90
15113;DHT22;7657;50.140;7.076;2023-06-22T09:57:48;23.80;99.90
15113;DHT22;7657;50.140;7.076;2023-06-22T10:00:17;23.90;99.90
15113;DHT22;7657;50.140;7.076;2023-06-22T10:02:46;23.90;99.90
15113;DHT22;7657;50.140;7.076;2023-06-22T10:05:13;24.00;99.90
15113;DHT22;7657;50.140;7.076;2023-06-22T10:07:41;23.90;99.90
15113;DHT22;7657;50.140;7.076;2023-06-22T10:10:09;23.80;99.90
15113;DHT22;7657;50.140;7.076;2023-06-22T10:12:37;23.80;99.90
15113;DHT22;7657;50.140;7.076;2023-06-22T10:15:05;23.80;99.90
15113;DHT22;7657;50.140;7.076;2023-06-22T10:17:32;23.80;99.90
15113;DHT22;7657;50.140;7.076;2023-06-22T10:20:00;23.80;99.90
15113;DHT22;7657;50.140;7.076;2023-06-22T10:22:31;23.70;99.90
15113;DHT22;7657;50.140;7.076;2023-06-22T10:24:59;23.60;99.90
15113;DHT22;7657;50.140;7.076;2023-06-22T10:27:26;23.50;99.90
15113;DHT22;7657;50.140;7.076;2023-06-22T10:29:53;23.50;99.90
15113;DHT22;7657;50.140;7.076;2023-06-22T10:32:20;23.50;99.90
15113;DHT22;7657;50.140;7.076;2023-06-22T10:34:47;23.50;99.90
15113;DHT22;7657;50.140;7.076;2023-06-22T10:37:14;23.60;99.90
15113;DHT22;7657;50.140;7.076;2023-06-22T10:39:41;23.60;99.90
15113;DHT22;7657;50.140;7.076;2023-06-22T10:42:09;23.60;99.90
15113;DHT22;7657;50.140;7.076;2023-06-22T10:44:36;23.60;99.90
15113;DHT22;7657;50.140;7.076;2023-06-22T10:47:05;23.70;99.90
15113;DHT22;7657;50.140;7.076;2023-06-22T10:49:32;23.80;99.90
15113;DHT22;7657;50.140;7.076;2023-06-22T10:51:58;23.80;99.90
15113;DHT22;7657;50.140;7.076;2023-06-22T10:54:25;24.00;99.90
15113;DHT22;7657;50.140;7.076;2023-06-22T10:56:52;24.10;99.90
15113;DHT22;7657;50.140;7.076;2023-06-22T10:59:20;24.10;99.90
15113;DHT22;7657;50.140;7.076;2023-06-22T11:01:49;24.20;99.90
15113;DHT22;7657;50.140;7.076;2023-06-22T11:04:16;24.20;99.90
15113;DHT22;7657;50.140;7.076;2023-06-22T11:06:43;24.30;99.90
15113;DHT22;7657;50.140;7.076;2023-06-22T11:09:10;24.40;99.90
15113;DHT22;7657;50.140;7.076;2023-06-22T11:11:37;24.40;99.90
15113;DHT22;7657;50.140;7.076;2023-06-22T11:14:04;24.40;99.90
15113;DHT22;7657;50.140;7.076;2023-06-22T11:16:32;24.40;99.90
15113;DHT22;7657;50.140;7.076;2023-06-22T11:19:00;24.50;99.90
15113;DHT22;7657;50.140;7.076;2023-06-22T11:21:27;24.50;99.90
15113;DHT22;7657;50.140;7.076;2023-06-22T11:23:53;24.50;99.90
15113;DHT22;7657;50.140;7.076;2023-06-22T11:26:21;24.50;99.90
15113;DHT22;7657;50.140;7.076;2023-06-22T11:28:47;24.60;99.90
15113;DHT22;7657;50.140;7.076;2023-06-22T11:31:14;24.60;99.90
15113;DHT22;7657;50.140;7.076;2023-06-22T11:33:43;24.60;99.90
15113;DHT22;7657;50.140;7.076;2023-06-22T11:36:10;24.70;99.90
15113;DHT22;7657;50.140;7.076;2023-06-22T11:38:37;24.70;99.90
15113;DHT22;7657;50.140;7.076;2023-06-22T11:41:05;24.70;99.90
15113;DHT22;7657;50.140;7.076;2023-06-22T11:43:32;24.80;99.90
15113;DHT22;7657;50.140;7.076;2023-06-22T11:45:59;24.90;99.90
15113;DHT22;7657;50.140;7.076;2023-06-22T11:48:26;24.90;99.90
15113;DHT22;7657;50.140;7.076;2023-06-22T11:50:54;25.00;99.90
15113;DHT22;7657;50.140;7.076;2023-06-22T11:53:22;25.10;99.90
15113;DHT22;7657;50.140;7.076;2023-06-22T11:55:49;25.20;99.90
15113;DHT22;7657;50.140;7.076;2023-06-22T11:58:16;25.20;99.90
15113;DHT22;7657;50.140;7.076;2023-06-22T12:00:43;25.20;99.90
15113;DHT22;7657;50.140;7.076;2023-06-22T12:03:10;25.20;99.90
15113;DHT22;7657;50.140;7.076;2023-06-22T12:05:38;25.30;99.90
15113;DHT22;7657;50.140;7.076;2023-06-22T12:08:06;25.50;99.90
15113;DHT22;7657;50.140;7.076;2023-06-22T12:10:33;25.50;99.90
15113;DHT22;7657;50.140;7.076;2023-06-22T12:13:00;25.70;99.90
15113;DHT22;7657;50.140;7.076;2023-06-22T12:15:27;25.70;99.90
15113;DHT22;7657;50.140;7.076;2023-06-22T12:17:54;25.70;99.90
15113;DHT22;7657;50.140;7.076;2023-06-22T12:20:21;25.70;99.90
15113;DHT22;7657;50.140;7.076;2023-06-22T12:22:48;25.80;99.90
15113;DHT22;7657;50.140;7.076;2023-06-22T12:25:18;25.80;99.90
15113;DHT22;7657;50.140;7.076;2023-06-22T12:27:45;25.80;99.90
15113;DHT22;7657;50.140;7.076;2023-06-22T12:30:12;25.80;99.90
15113;DHT22;7657;50.140;7.076;2023-06-22T12:32:39;25.80;99.90
15113;DHT22;7657;50.140;7.076;2023-06-22T12:35:07;25.90;99.90
15113;DHT22;7657;50.140;7.076;2023-06-22T12:37:39;25.90;99.90
15113;DHT22;7657;50.140;7.076;2023-06-22T12:40:07;26.00;99.90
15113;DHT22;7657;50.140;7.076;2023-06-22T12:42:35;26.10;99.90
15113;DHT22;7657;50.140;7.076;2023-06-22T12:45:03;26.30;99.90
15113;DHT22;7657;50.140;7.076;2023-06-22T12:47:30;26.40;99.90
15113;DHT22;7657;50.140;7.076;2023-06-22T12:49:57;26.60;99.90
15113;DHT22;7657;50.140;7.076;2023-06-22T12:52:23;26.80;99.90
15113;DHT22;7657;50.140;7.076;2023-06-22T12:54:50;27.00;99.90
15113;DHT22;7657;50.140;7.076;2023-06-22T12:57:17;27.20;99.90
15113;DHT22;7657;50.140;7.076;2023-06-22T12:59:46;27.30;99.90
15113;DHT22;7657;50.140;7.076;2023-06-22T13:02:13;27.40;99.90
15113;DHT22;7657;50.140;7.076;2023-06-22T13:04:40;27.50;99.90
15113;DHT22;7657;50.140;7.076;2023-06-22T13:07:08;27.30;99.90
15113;DHT22;7657;50.140;7.076;2023-06-22T13:09:36;27.20;99.90
15113;DHT22;7657;50.140;7.076;2023-06-22T13:12:04;27.10;99.90
15113;DHT22;7657;50.140;7.076;2023-06-22T13:14:30;27.10;99.90
15113;DHT22;7657;50.140;7.076;2023-06-22T13:16:59;26.90;99.90
15113;DHT22;7657;50.140;7.076;2023-06-22T13:19:26;26.80;99.90
15113;DHT22;7657;50.140;7.076;2023-06-22T13:21:54;26.70;99.90
15113;DHT22;7657;50.140;7.076;2023-06-22T13:24:21;26.40;99.90
15113;DHT22;7657;50.140;7.076;2023-06-22T13:26:48;26.30;99.90
15113;DHT22;7657;50.140;7.076;2023-06-22T13:29:15;26.20;99.90
15113;DHT22;7657;50.140;7.076;2023-06-22T13:31:42;26.10;99.90
15113;DHT22;7657;50.140;7.076;2023-06-22T13:34:10;26.10;99.90
15113;DHT22;7657;50.140;7.076;2023-06-22T13:36:38;26.00;99.90
15113;DHT22;7657;50.140;7.076;2023-06-22T13:39:04;25.70;99.90
15113;DHT22;7657;50.140;7.076;2023-06-22T13:41:31;25.50;99.90
15113;DHT22;7657;50.140;7.076;2023-06-22T13:43:58;25.30;99.90
15113;DHT22;7657;50.140;7.076;2023-06-22T13:46:25;25.10;99.90
15113;DHT22;7657;50.140;7.076;2023-06-22T13:48:52;25.00;99.90
15113;DHT22;7657;50.140;7.076;2023-06-22T13:51:20;25.00;99.90
15113;DHT22;7657;50.140;7.076;2023-06-22T13:53:47;24.90;99.90
15113;DHT22;7657;50.140;7.076;2023-06-22T13:56:14;24.90;99.90
15113;DHT22;7657;50.140;7.076;2023-06-22T13:58:41;24.90;99.90
15113;DHT22;7657;50.140;7.076;2023-06-22T14:01:09;24.80;99.90
15113;DHT22;7657;50.140;7.076;2023-06-22T14:03:36;24.90;99.90
15113;DHT22;7657;50.140;7.076;2023-06-22T14:06:02;24.80;99.90
15113;DHT22;7657;50.140;7.076;2023-06-22T14:08:31;24.70;99.90
15113;DHT22;7657;50.140;7.076;2023-06-22T14:10:58;24.40;99.90
15113;DHT22;7657;50.140;7.076;2023-06-22T14:13:24;22.90;99.90
15113;DHT22;7657;50.140;7.076;2023-06-22T14:15:51;21.40;99.90
15113;DHT22;7657;50.140;7.076;2023-06-22T14:18:19;20.90;99.90
15113;DHT22;7657;50.140;7.076;2023-06-22T14:20:47;20.60;99.90
15113;DHT22;7657;50.140;7.076;2023-06-22T14:23:14;20.50;99.90
15113;DHT22;7657;50.140;7.076;2023-06-22T14:25:43;20.50;99.90
15113;DHT22;7657;50.140;7.076;2023-06-22T14:28:09;20.80;99.90
15113;DHT22;7657;50.140;7.076;2023-06-22T14:30:36;20.90;99.90
15113;DHT22;7657;50.140;7.076;2023-06-22T14:33:03;21.10;99.90
15113;DHT22;7657;50.140;7.076;2023-06-22T14:35:30;21.10;99.90
15113;DHT22;7657;50.140;7.076;2023-06-22T14:37:57;21.20;99.90
15113;DHT22;7657;50.140;7.076;2023-06-22T14:40:24;21.20;99.90
15113;DHT22;7657;50.140;7.076;2023-06-22T14:42:52;21.30;99.90
15113;DHT22;7657;50.140;7.076;2023-06-22T14:45:22;21.30;99.90
15113;DHT22;7657;50.140;7.076;2023-06-22T14:47:48;21.30;99.90
15113;DHT22;7657;50.140;7.076;2023-06-22T14:50:15;21.30;99.90
15113;DHT22;7657;50.140;7.076;2023-06-22T14:52:44;21.20;99.90
15113;DHT22;7657;50.140;7.076;2023-06-22T14:55:11;21.20;99.90
15113;DHT22;7657;50.140;7.076;2023-06-22T14:57:37;21.10;99.90
15113;DHT22;7657;50.140;7.076;2023-06-22T15:00:07;21.00;99.90
15113;DHT22;7657;50.140;7.076;2023-06-22T15:02:34;20.50;99.90
15113;DHT22;7657;50.140;7.076;2023-06-22T15:05:01;20.30;99.90
15113;DHT22;7657;50.140;7.076;2023-06-22T15:07:28;20.20;99.90
15113;DHT22;7657;50.140;7.076;2023-06-22T15:09:55;20.10;99.90
15113;DHT22;7657;50.140;7.076;2023-06-22T15:12:22;20.10;99.90
15113;DHT22;7657;50.140;7.076;2023-06-22T15:14:48;20.10;99.90
15113;DHT22;7657;50.140;7.076;2023-06-22T15:17:17;20.20;99.90
15113;DHT22;7657;50.140;7.076;2023-06-22T15:19:43;20.30;99.90
15113;DHT22;7657;50.140;7.076;2023-06-22T15:22:11;20.40;99.90
15113;DHT22;7657;50.140;7.076;2023-06-22T15:24:38;20.50;99.90
15113;DHT22;7657;50.140;7.076;2023-06-22T15:27:05;20.60;99.90
15113;DHT22;7657;50.140;7.076;2023-06-22T15:29:32;20.60;99.90
15113;DHT22;7657;50.140;7.076;2023-06-22T15:31:59;20.80;99.90
15113;DHT22;7657;50.140;7.076;2023-06-22T15:34:28;20.90;99.90
15113;DHT22;7657;50.140;7.076;2023-06-22T15:36:55;21.00;99.90
15113;DHT22;7657;50.140;7.076;2023-06-22T15:39:22;21.10;99.90
15113;DHT22;7657;50.140;7.076;2023-06-22T15:41:52;21.00;99.90
15113;DHT22;7657;50.140;7.076;2023-06-22T15:44:20;21.00;99.90
15113;DHT22;7657;50.140;7.076;2023-06-22T15:46:46;21.10;99.90
15113;DHT22;7657;50.140;7.076;2023-06-22T15:49:14;21.10;99.90